createdAt,value
2022-08-21T00:02:26.509Z,0.07
2022-08-21T00:04:57.426Z,0.04
2022-08-21T00:07:27.211Z,0.07
2022-08-21T00:09:54.424Z,0.04
2022-08-21T00:12:23.994Z,0.02
2022-08-21T00:14:51.399Z,0.01
2022-08-21T00:17:24.284Z,0.02
2022-08-21T00:19:52.688Z,0.03
2022-08-21T00:22:21.123Z,0.02
2022-08-21T00:24:50.360Z,0.04
2022-08-21T00:27:17.266Z,0.02
2022-08-21T00:29:44.619Z,0.01
2022-08-21T00:32:11.462Z,0.01
2022-08-21T00:34:38.530Z,0.00
2022-08-21T00:37:05.623Z,0.01
2022-08-21T00:39:35.022Z,0.00
2022-08-21T00:42:02.131Z,0.00
2022-08-21T00:44:30.674Z,0.00
2022-08-21T00:46:57.532Z,0.00
2022-08-21T00:49:27.163Z,0.00
2022-08-21T00:51:57.371Z,0.05
2022-08-21T00:54:26.968Z,0.05
2022-08-21T00:57:00.711Z,0.02
2022-08-21T00:59:33.180Z,0.01
2022-08-21T01:02:00.011Z,0.05
2022-08-21T01:04:27.269Z,0.03
2022-08-21T01:06:54.411Z,0.02
2022-08-21T01:09:21.425Z,0.01
2022-08-21T01:11:49.231Z,0.00
2022-08-21T01:14:18.954Z,0.00
2022-08-21T01:16:50.489Z,0.00
2022-08-21T01:19:19.267Z,0.00
2022-08-21T01:21:48.884Z,0.00
2022-08-21T01:24:16.011Z,0.00
2022-08-21T01:26:45.219Z,0.00
2022-08-21T01:29:17.717Z,0.00
2022-08-21T01:31:45.324Z,0.00
2022-08-21T01:34:12.320Z,0.00
2022-08-21T01:36:39.337Z,0.00
2022-08-21T01:39:07.735Z,0.00
2022-08-21T01:41:34.967Z,0.00
2022-08-21T01:44:05.237Z,0.00
2022-08-21T01:46:32.486Z,0.00
2022-08-21T01:49:00.538Z,0.00
2022-08-21T01:51:27.496Z,0.00
2022-08-21T01:53:56.046Z,0.00
2022-08-21T01:56:25.679Z,0.07
2022-08-21T01:58:52.679Z,0.04
2022-08-21T02:01:19.677Z,0.05
2022-08-21T02:03:46.660Z,0.03
2022-08-21T02:06:16.063Z,0.01
2022-08-21T02:08:43.144Z,0.01
2022-08-21T02:11:10.196Z,0.00
2022-08-21T02:13:38.605Z,0.00
2022-08-21T02:16:06.130Z,0.00
2022-08-21T02:18:33.201Z,0.00
2022-08-21T02:21:01.229Z,0.00
2022-08-21T02:23:28.295Z,0.00
2022-08-21T02:25:55.920Z,0.00
2022-08-21T02:28:23.207Z,0.00
2022-08-21T02:30:53.083Z,0.00
2022-08-21T02:33:21.089Z,0.00
2022-08-21T02:35:49.733Z,0.00
2022-08-21T02:38:20.018Z,0.00
2022-08-21T02:40:51.270Z,0.00
2022-08-21T02:43:19.341Z,0.00
2022-08-21T02:45:48.574Z,0.00
2022-08-21T02:48:20.144Z,0.00
2022-08-21T02:50:52.588Z,0.00
2022-08-21T02:53:20.798Z,0.00
2022-08-21T02:55:54.139Z,0.00
2022-08-21T02:58:24.348Z,0.00
2022-08-21T03:00:52.150Z,0.00
2022-08-21T03:03:21.543Z,0.00
2022-08-21T03:05:48.914Z,0.00
2022-08-21T03:08:16.883Z,0.08
2022-08-21T03:10:46.084Z,0.04
2022-08-21T03:13:14.955Z,0.02
2022-08-21T03:15:42.921Z,0.01
2022-08-21T03:18:12.417Z,0.06
2022-08-21T03:20:42.119Z,0.03
2022-08-21T03:23:13.359Z,0.02
2022-08-21T03:25:42.296Z,0.01
2022-08-21T03:28:15.352Z,0.00
2022-08-21T03:30:42.584Z,0.00
2022-08-21T03:33:15.236Z,0.00
2022-08-21T03:35:46.149Z,0.00
2022-08-21T03:38:14.050Z,0.00
2022-08-21T03:40:41.749Z,0.00
2022-08-21T03:43:10.572Z,0.00
2022-08-21T03:45:39.089Z,0.00
2022-08-21T03:48:09.425Z,0.00
2022-08-21T03:50:43.381Z,0.00
2022-08-21T03:53:17.341Z,0.00
2022-08-21T03:55:48.593Z,0.00
2022-08-21T03:58:19.223Z,0.00
2022-08-21T04:00:51.043Z,0.00
2022-08-21T04:03:18.211Z,0.00
2022-08-21T04:05:47.468Z,0.00
2022-08-21T04:08:17.799Z,0.00
2022-08-21T04:10:47.590Z,0.05
2022-08-21T04:13:15.256Z,0.02
2022-08-21T04:15:49.781Z,0.01
2022-08-21T04:18:17.783Z,0.01
2022-08-21T04:20:50.715Z,0.00
2022-08-21T04:23:23.580Z,0.00
2022-08-21T04:25:51.952Z,0.04
2022-08-21T04:28:20.327Z,0.02
2022-08-21T04:30:48.004Z,0.01
2022-08-21T04:33:15.412Z,0.01
2022-08-21T04:35:42.927Z,0.00
2022-08-21T04:38:09.928Z,0.00
2022-08-21T04:40:46.827Z,0.00
2022-08-21T04:43:15.079Z,0.00
2022-08-21T04:45:45.668Z,0.00
2022-08-21T04:48:19.544Z,0.00
2022-08-21T04:50:52.040Z,0.00
2022-08-21T04:53:23.622Z,0.00
2022-08-21T04:55:55.173Z,0.00
2022-08-21T04:58:26.908Z,0.00
2022-08-21T05:00:56.879Z,0.00
2022-08-21T05:03:24.895Z,0.00
2022-08-21T05:05:51.790Z,0.00
2022-08-21T05:08:22.626Z,0.00
2022-08-21T05:10:49.902Z,0.00
2022-08-21T05:13:19.183Z,0.00
2022-08-21T05:15:47.508Z,0.00
2022-08-21T05:18:14.786Z,0.00
2022-08-21T05:20:41.619Z,0.00
2022-08-21T05:23:10.108Z,0.00
2022-08-21T05:25:39.947Z,0.21
2022-08-21T05:28:07.611Z,0.11
2022-08-21T05:30:37.742Z,0.06
2022-08-21T05:33:07.333Z,0.03
2022-08-21T05:35:34.570Z,0.02
2022-08-21T05:38:02.669Z,0.01
2022-08-21T05:40:29.725Z,0.00
2022-08-21T05:43:00.693Z,0.00
2022-08-21T05:45:43.191Z,0.00
2022-08-21T05:48:17.546Z,0.00
2022-08-21T05:50:45.535Z,0.00
2022-08-21T05:53:16.040Z,0.00
2022-08-21T05:55:46.033Z,0.00
2022-08-21T05:58:16.047Z,0.00
2022-08-21T06:00:43.409Z,0.00
2022-08-21T06:03:17.692Z,0.00
2022-08-21T06:05:44.577Z,0.00
2022-08-21T06:08:14.824Z,0.00
2022-08-21T06:10:41.905Z,0.00
2022-08-21T06:13:08.929Z,0.00
2022-08-21T06:15:38.634Z,0.00
2022-08-21T06:18:06.582Z,0.00
2022-08-21T06:20:35.075Z,0.00
2022-08-21T06:23:02.603Z,0.00
2022-08-21T06:25:30.904Z,0.00
2022-08-21T06:28:03.143Z,0.00
2022-08-21T06:30:32.376Z,0.00
2022-08-21T06:33:00.413Z,0.00
2022-08-21T06:35:27.850Z,0.00
2022-08-21T06:37:56.253Z,0.00
2022-08-21T06:40:27.767Z,0.00
2022-08-21T06:42:58.381Z,0.00
2022-08-21T06:45:32.615Z,0.00
2022-08-21T06:48:00.247Z,0.00
2022-08-21T06:50:27.787Z,0.00
2022-08-21T06:53:02.089Z,0.00
2022-08-21T06:55:32.011Z,0.00
2022-08-21T06:57:59.006Z,0.00
2022-08-21T07:00:30.307Z,0.00
2022-08-21T07:02:57.570Z,0.00
2022-08-21T07:05:27.373Z,0.00
2022-08-21T07:07:58.346Z,0.00
2022-08-21T07:10:29.379Z,0.02
2022-08-21T07:13:00.140Z,0.01
2022-08-21T07:15:29.463Z,0.01
2022-08-21T07:17:57.745Z,0.00
2022-08-21T07:20:26.824Z,0.00
2022-08-21T07:22:54.191Z,0.04
2022-08-21T07:25:21.580Z,0.02
2022-08-21T07:27:55.643Z,0.01
2022-08-21T07:30:24.032Z,0.01
2022-08-21T07:32:51.832Z,0.00
2022-08-21T07:35:27.202Z,0.00
2022-08-21T07:37:54.908Z,0.00
2022-08-21T07:40:24.401Z,0.00
2022-08-21T07:42:55.123Z,0.05
2022-08-21T07:45:23.989Z,0.07
2022-08-21T07:47:55.422Z,0.04
2022-08-21T07:50:27.810Z,0.02
2022-08-21T07:52:55.461Z,0.01
2022-08-21T07:55:25.768Z,0.01
2022-08-21T07:58:02.685Z,0.00
2022-08-21T08:00:31.326Z,0.00
2022-08-21T08:02:58.539Z,0.00
2022-08-21T08:05:29.337Z,0.00
2022-08-21T08:07:58.843Z,0.00
2022-08-21T08:10:27.670Z,0.00
2022-08-21T08:12:56.282Z,0.00
2022-08-21T08:15:27.542Z,0.01
2022-08-21T08:17:55.372Z,0.17
2022-08-21T08:20:23.922Z,0.09
2022-08-21T08:22:51.474Z,0.06
2022-08-21T08:25:23.129Z,0.03
2022-08-21T08:27:51.059Z,0.02
2022-08-21T08:30:22.462Z,0.01
2022-08-21T08:32:49.310Z,0.00
2022-08-21T08:35:16.934Z,0.00
2022-08-21T08:37:51.410Z,0.00
2022-08-21T08:40:30.605Z,0.00
2022-08-21T08:43:00.061Z,0.00
2022-08-21T08:45:33.880Z,0.00
2022-08-21T08:48:06.582Z,0.00
2022-08-21T08:50:46.428Z,0.00
2022-08-21T08:53:19.465Z,0.00
2022-08-21T08:55:52.165Z,0.00
2022-08-21T08:58:23.977Z,0.00
2022-08-21T09:00:55.956Z,0.00
2022-08-21T09:03:25.891Z,0.00
2022-08-21T09:06:01.553Z,0.00
2022-08-21T09:08:48.502Z,0.39
2022-08-21T09:11:28.027Z,0.21
2022-08-21T09:14:08.750Z,0.11
2022-08-21T09:16:47.710Z,0.06
2022-08-21T09:19:30.385Z,0.03
2022-08-21T09:22:09.434Z,0.10
2022-08-21T09:25:01.118Z,0.05
2022-08-21T09:27:28.168Z,0.03
2022-08-21T09:29:58.892Z,0.05
2022-08-21T09:32:36.864Z,0.03
2022-08-21T09:35:08.250Z,0.01
2022-08-21T09:37:46.833Z,0.05
2022-08-21T09:40:29.916Z,0.08
2022-08-21T09:42:59.961Z,0.04
2022-08-21T09:45:28.323Z,0.02
2022-08-21T09:48:12.715Z,0.06
2022-08-21T09:50:40.973Z,0.12
2022-08-21T09:53:18.483Z,0.11
2022-08-21T09:55:50.591Z,0.11
2022-08-21T09:58:19.637Z,0.10
2022-08-21T10:00:57.160Z,0.06
2022-08-21T10:03:26.762Z,0.25
2022-08-21T10:05:59.009Z,0.13
2022-08-21T10:08:27.858Z,0.12
2022-08-21T10:11:04.136Z,0.06
2022-08-21T10:13:43.690Z,0.08
2022-08-21T10:16:27.272Z,0.07
2022-08-21T10:19:07.034Z,0.04
2022-08-21T10:21:43.517Z,0.02
2022-08-21T10:24:30.517Z,0.06
2022-08-21T10:27:20.990Z,0.03
2022-08-21T10:29:55.370Z,0.06
2022-08-21T10:32:47.628Z,0.03
2022-08-21T10:35:23.424Z,0.06
2022-08-21T10:38:39.386Z,0.03
2022-08-21T10:41:15.307Z,0.07
2022-08-21T10:43:52.365Z,0.08
2022-08-21T10:46:39.136Z,0.14
2022-08-21T10:49:18.613Z,0.09
2022-08-21T10:51:58.456Z,0.05
2022-08-21T10:54:38.324Z,0.07
2022-08-21T10:57:10.996Z,0.05
2022-08-21T10:59:43.269Z,0.03
2022-08-21T11:02:16.379Z,0.06
2022-08-21T11:04:56.352Z,0.03
2022-08-21T11:07:33.643Z,0.06
2022-08-21T11:10:10.265Z,0.08
2022-08-21T11:12:44.267Z,0.09
2022-08-21T11:15:29.643Z,0.09
2022-08-21T11:18:04.580Z,0.10
2022-08-21T11:20:42.614Z,0.05
2022-08-21T11:23:17.704Z,0.05
2022-08-21T11:25:50.564Z,0.08
2022-08-21T11:28:22.683Z,0.04
2022-08-21T11:31:13.924Z,0.07
2022-08-21T11:33:57.991Z,0.08
2022-08-21T11:36:35.284Z,0.09
2022-08-21T11:39:16.536Z,0.10
2022-08-21T11:41:54.986Z,0.10
2022-08-21T11:44:33.012Z,0.10
2022-08-21T11:47:06.872Z,0.10
2022-08-21T11:49:48.273Z,0.11
2022-08-21T11:52:21.604Z,0.10
2022-08-21T11:54:59.631Z,0.10
2022-08-21T11:57:34.117Z,0.10
2022-08-21T12:00:06.398Z,0.10
2022-08-21T12:02:37.287Z,0.10
2022-08-21T12:05:09.353Z,0.10
2022-08-21T12:07:43.267Z,0.10
2022-08-21T12:10:15.427Z,0.10
2022-08-21T12:12:46.985Z,0.10
2022-08-21T12:15:18.370Z,0.10
2022-08-21T12:17:58.990Z,0.10
2022-08-21T12:20:39.588Z,0.10
2022-08-21T12:23:25.096Z,0.10
2022-08-21T12:26:20.702Z,0.10
2022-08-21T12:28:49.149Z,0.10
2022-08-21T12:31:25.640Z,0.10
2022-08-21T12:33:58.311Z,0.19
2022-08-21T12:36:38.842Z,0.15
2022-08-21T12:39:15.016Z,0.13
2022-08-21T12:41:49.331Z,0.11
2022-08-21T12:44:23.902Z,0.11
2022-08-21T12:46:56.771Z,0.06
2022-08-21T12:49:36.187Z,0.08
2022-08-21T12:52:13.453Z,0.09
2022-08-21T12:54:43.358Z,0.07
2022-08-21T12:57:21.713Z,0.08
2022-08-21T12:59:56.484Z,0.16
2022-08-21T13:02:27.146Z,0.13
2022-08-21T13:04:59.291Z,0.12
2022-08-21T13:07:30.723Z,0.06
2022-08-21T13:10:01.470Z,0.10
2022-08-21T13:12:32.768Z,0.13
2022-08-21T13:15:08.768Z,0.11
2022-08-21T13:17:39.565Z,0.15
2022-08-21T13:20:10.952Z,0.13
2022-08-21T13:22:43.252Z,0.12
2022-08-21T13:25:12.641Z,0.11
2022-08-21T13:27:56.938Z,0.10
2022-08-21T13:30:27.297Z,0.10
2022-08-21T13:33:01.378Z,0.10
2022-08-21T13:35:35.696Z,0.07
2022-08-21T13:38:05.505Z,0.06
2022-08-21T13:40:47.415Z,0.08
2022-08-21T13:43:21.165Z,0.14
2022-08-21T13:45:54.383Z,0.09
2022-08-21T13:48:29.961Z,0.09
2022-08-21T13:50:58.254Z,0.16
2022-08-21T13:53:31.342Z,0.12
2022-08-21T13:56:02.766Z,0.11
2022-08-21T13:58:41.944Z,0.11
2022-08-21T14:01:24.620Z,0.10
2022-08-21T14:03:55.452Z,0.10
2022-08-21T14:06:29.038Z,0.10
2022-08-21T14:09:00.758Z,0.09
2022-08-21T14:11:33.391Z,0.09
2022-08-21T14:14:07.469Z,0.10
2022-08-21T14:16:45.727Z,0.10
2022-08-21T14:19:22.122Z,0.06
2022-08-21T14:21:52.106Z,0.12
2022-08-21T14:24:28.173Z,0.11
2022-08-21T14:27:01.955Z,0.08
2022-08-21T14:29:36.282Z,0.09
2022-08-21T14:32:21.492Z,0.10
2022-08-21T14:34:54.536Z,0.10
2022-08-21T14:37:23.925Z,0.10
2022-08-21T14:39:51.332Z,0.10
2022-08-21T14:42:19.960Z,0.10
2022-08-21T14:44:57.596Z,0.15
2022-08-21T14:47:25.853Z,0.08
2022-08-21T14:49:57.291Z,0.09
2022-08-21T14:52:24.952Z,0.14
2022-08-21T14:54:51.919Z,0.12
2022-08-21T14:57:18.785Z,0.11
2022-08-21T14:59:47.987Z,0.06
2022-08-21T15:02:18.068Z,0.13
2022-08-21T15:04:48.767Z,0.11
2022-08-21T15:07:15.610Z,0.11
2022-08-21T15:09:45.027Z,0.14
2022-08-21T15:12:16.244Z,0.12
2022-08-21T15:14:45.899Z,0.11
2022-08-21T15:17:13.929Z,0.15
2022-08-21T15:19:43.323Z,0.12
2022-08-21T15:22:15.455Z,0.11
2022-08-21T15:24:48.490Z,0.11
2022-08-21T15:27:19.399Z,0.22
2022-08-21T15:29:46.643Z,0.16
2022-08-21T15:32:20.282Z,0.13
2022-08-21T15:34:50.355Z,0.12
2022-08-21T15:37:19.838Z,0.17
2022-08-21T15:39:52.292Z,0.14
2022-08-21T15:42:25.755Z,0.12
2022-08-21T15:45:02.401Z,0.11
2022-08-21T15:47:36.750Z,0.11
2022-08-21T15:50:08.581Z,0.14
2022-08-21T15:52:36.905Z,0.12
2022-08-21T15:55:05.417Z,0.11
2022-08-21T15:57:32.715Z,0.11
2022-08-21T16:00:01.660Z,0.10
2022-08-21T16:02:32.946Z,0.10
2022-08-21T16:05:02.853Z,0.19
2022-08-21T16:07:32.779Z,0.15
2022-08-21T16:10:00.716Z,0.22
2022-08-21T16:12:35.250Z,0.17
2022-08-21T16:15:05.010Z,0.14
2022-08-21T16:17:35.809Z,0.13
2022-08-21T16:20:07.198Z,0.16
2022-08-21T16:22:43.950Z,0.13
2022-08-21T16:25:13.246Z,0.12
2022-08-21T16:27:46.048Z,0.11
2022-08-21T16:30:15.023Z,0.10
2022-08-21T16:32:45.145Z,0.10
2022-08-21T16:35:16.625Z,0.10
2022-08-21T16:37:51.040Z,0.14
2022-08-21T16:40:20.448Z,0.12
2022-08-21T16:42:49.615Z,0.11
2022-08-21T16:45:21.612Z,0.13
2022-08-21T16:47:49.398Z,0.12
2022-08-21T16:50:22.910Z,0.11
2022-08-21T16:52:53.792Z,0.15
2022-08-21T16:55:21.899Z,0.15
2022-08-21T16:57:48.873Z,0.17
2022-08-21T17:00:16.800Z,0.19
2022-08-21T17:02:47.784Z,0.15
2022-08-21T17:05:24.394Z,0.14
2022-08-21T17:07:53.756Z,0.17
2022-08-21T17:10:23.664Z,0.16
2022-08-21T17:12:55.592Z,0.16
2022-08-21T17:15:30.978Z,0.16
2022-08-21T17:18:03.818Z,0.18
2022-08-21T17:20:32.329Z,0.16
2022-08-21T17:23:04.521Z,0.18
2022-08-21T17:25:32.458Z,0.19
2022-08-21T17:28:04.068Z,0.27
2022-08-21T17:30:33.697Z,0.23
2022-08-21T17:33:01.500Z,0.22
2022-08-21T17:35:28.960Z,0.21
2022-08-21T17:37:59.528Z,0.26
2022-08-21T17:40:31.442Z,0.28
2022-08-21T17:43:07.104Z,0.27
2022-08-21T17:45:39.237Z,0.24
2022-08-21T17:48:06.885Z,0.51
2022-08-21T17:50:34.427Z,0.46
2022-08-21T17:53:02.512Z,0.34
2022-08-21T17:55:32.015Z,0.27
2022-08-21T17:58:01.051Z,0.19
2022-08-21T18:00:31.148Z,0.19
2022-08-21T18:03:02.064Z,0.24
2022-08-21T18:05:32.392Z,0.31
2022-08-21T18:08:03.670Z,0.26
2022-08-21T18:10:33.093Z,0.23
2022-08-21T18:13:05.861Z,0.25
2022-08-21T18:15:34.289Z,0.23
2022-08-21T18:18:03.945Z,0.21
2022-08-21T18:20:31.976Z,0.16
2022-08-21T18:23:01.853Z,0.16
2022-08-21T18:25:32.020Z,0.25
2022-08-21T18:28:02.868Z,0.23
2022-08-21T18:30:37.477Z,0.21
2022-08-21T18:33:07.507Z,0.21
2022-08-21T18:35:35.230Z,0.26
2022-08-21T18:38:02.301Z,0.23
2022-08-21T18:40:37.734Z,0.25
2022-08-21T18:43:07.685Z,0.23
2022-08-21T18:45:37.316Z,0.21
2022-08-21T18:48:07.285Z,0.21
2022-08-21T18:50:36.815Z,0.20
2022-08-21T18:53:20.829Z,0.30
2022-08-21T18:55:57.117Z,0.30
2022-08-21T18:58:34.665Z,0.25
2022-08-21T19:01:01.842Z,0.35
2022-08-21T19:03:29.767Z,0.28
2022-08-21T19:05:58.777Z,0.30
2022-08-21T19:08:27.385Z,0.25
2022-08-21T19:10:59.510Z,0.23
2022-08-21T19:13:27.094Z,0.27
2022-08-21T19:15:57.517Z,0.31
2022-08-21T19:18:28.674Z,0.21
2022-08-21T19:20:57.660Z,0.20
2022-08-21T19:23:29.414Z,0.31
2022-08-21T19:26:02.789Z,0.26
2022-08-21T19:28:33.912Z,0.23
2022-08-21T19:31:06.623Z,0.22
2022-08-21T19:33:40.925Z,0.21
2022-08-21T19:36:15.500Z,0.19
2022-08-21T19:38:43.583Z,0.24
2022-08-21T19:41:18.741Z,0.27
2022-08-21T19:43:51.046Z,0.24
2022-08-21T19:46:26.244Z,0.22
2022-08-21T19:49:01.193Z,0.26
2022-08-21T19:51:29.105Z,0.23
2022-08-21T19:53:57.419Z,0.22
2022-08-21T19:56:36.634Z,0.21
2022-08-21T19:59:07.719Z,0.21
2022-08-21T20:01:40.093Z,0.41
2022-08-21T20:06:56.435Z,0.28
2022-08-21T20:12:09.889Z,0.21
2022-08-21T20:14:47.549Z,0.21
2022-08-21T20:17:17.422Z,0.20
2022-08-21T20:19:50.174Z,0.20
2022-08-21T20:22:24.345Z,0.45
2022-08-21T20:24:53.939Z,0.33
2022-08-21T20:27:25.858Z,0.42
2022-08-21T20:29:54.704Z,0.32
2022-08-21T20:32:22.341Z,0.26
2022-08-21T20:34:52.043Z,0.27
2022-08-21T20:37:22.162Z,0.25
2022-08-21T20:40:10.460Z,0.39
2022-08-21T20:42:41.301Z,0.30
2022-08-21T20:45:28.785Z,0.34
2022-08-21T20:48:04.183Z,0.28
2022-08-21T20:50:39.911Z,0.29
2022-08-21T20:53:13.339Z,0.26
2022-08-21T20:55:49.678Z,0.26
2022-08-21T20:58:33.243Z,0.23
2022-08-21T21:01:07.702Z,0.22
2022-08-21T21:03:42.283Z,0.21
2022-08-21T21:06:17.143Z,0.20
2022-08-21T21:08:49.904Z,0.20
2022-08-21T21:11:24.886Z,0.20
2022-08-21T21:14:00.550Z,0.20
2022-08-21T21:16:33.885Z,0.20
2022-08-21T21:19:11.143Z,0.23
2022-08-21T21:21:51.242Z,0.26
2022-08-21T21:24:32.210Z,0.33
2022-08-21T21:30:04.611Z,0.19
2022-08-21T21:32:34.834Z,0.21
2022-08-21T21:35:06.332Z,0.21
2022-08-21T21:37:45.283Z,0.20
2022-08-21T21:40:32.189Z,0.30
2022-08-21T21:43:10.915Z,0.25
2022-08-21T21:45:49.194Z,0.22
2022-08-21T21:48:28.959Z,0.26
2022-08-21T21:53:56.387Z,0.27
2022-08-21T21:56:34.523Z,0.38
2022-08-21T21:59:18.202Z,0.34
2022-08-21T22:01:51.450Z,0.28
2022-08-21T22:04:32.691Z,0.33
2022-08-21T22:07:11.686Z,0.38
2022-08-21T22:09:48.953Z,0.40
2022-08-21T22:12:32.159Z,0.39
2022-08-21T22:15:05.969Z,0.31
2022-08-21T22:17:46.683Z,0.28
2022-08-21T22:20:22.667Z,0.22
2022-08-21T22:22:56.587Z,0.21
2022-08-21T22:25:34.710Z,0.25
2022-08-21T22:28:06.789Z,0.23
2022-08-21T22:30:42.325Z,0.22
2022-08-21T22:33:20.066Z,0.21
2022-08-21T22:35:51.646Z,0.20
2022-08-21T22:38:29.884Z,0.20
2022-08-21T22:41:11.357Z,0.25
2022-08-21T22:43:50.865Z,0.43
2022-08-21T22:46:28.803Z,0.41
2022-08-21T22:49:02.708Z,0.31
2022-08-21T22:51:34.934Z,0.28
2022-08-21T22:54:04.205Z,0.24
2022-08-21T22:56:51.469Z,0.22
2022-08-21T22:59:26.651Z,0.21
2022-08-21T23:01:59.311Z,0.25
2022-08-21T23:04:28.514Z,0.23
2022-08-21T23:06:57.702Z,0.26
2022-08-21T23:09:35.874Z,0.21
2022-08-21T23:12:21.156Z,0.17
2022-08-21T23:14:48.593Z,0.22
2022-08-21T23:17:32.981Z,0.21
2022-08-21T23:20:13.692Z,0.21
2022-08-21T23:22:59.433Z,0.20
2022-08-21T23:25:46.825Z,0.20
2022-08-21T23:28:26.310Z,0.25
2022-08-21T23:31:06.912Z,0.23
2022-08-21T23:34:06.100Z,0.21
2022-08-21T23:37:07.308Z,0.23
2022-08-21T23:39:55.259Z,0.22
2022-08-21T23:42:48.030Z,0.21
2022-08-21T23:45:33.102Z,0.16
2022-08-21T23:48:19.837Z,0.18
2022-08-21T23:51:01.461Z,0.24
2022-08-21T23:53:50.545Z,0.22
2022-08-21T23:56:27.711Z,0.27
2022-08-21T23:59:04.292Z,0.23
